Purdum, Nebraska
Current Conditions -  °F | °C
As of 10:15 AM on Tuesday 21 Oct 2014 (Local Time) from KTIF Reporting Station
Clear Clear  
Wind Chill: 63°   Ceiling: Unl
Heat Index: 63°   Visibility: 10mi
Dew Point: 51°   Wind: 20mph
Humidity: 64%   Direction: 200°SSW
Pressure: 30.03"   Gusts: 24mph
Location:  42.06°N, 100.25°W
Report Text: KTIF 211515Z AUTO 20017G21KT 10SM CLR 17/11 A3003 RMK AO2 T01730105
Loading
Personal Weather Stations






























Interactive Weather Map
Tropical Storm Tracking
New forecast layout! Learn more

10-Day Weather Forecast

Advertisements
Track Severe Weather on mobile